sensor_id;sensor_type;location;lat;lon;timestamp;P1;durP1;ratioP1;P2;durP2;ratioP2
69172;SDS011;56280;49.662;8.408;2023-07-30T00:01:30;4.10;;;1.30;;
69172;SDS011;56280;49.662;8.408;2023-07-30T00:03:55;3.43;;;1.20;;
69172;SDS011;56280;49.662;8.408;2023-07-30T00:06:20;3.00;;;1.30;;
69172;SDS011;56280;49.662;8.408;2023-07-30T00:08:46;3.13;;;1.33;;
69172;SDS011;56280;49.662;8.408;2023-07-30T00:11:11;4.03;;;1.33;;
69172;SDS011;56280;49.662;8.408;2023-07-30T00:13:36;3.70;;;1.20;;
69172;SDS011;56280;49.662;8.408;2023-07-30T00:16:01;3.57;;;1.20;;
69172;SDS011;56280;49.662;8.408;2023-07-30T00:18:27;3.40;;;1.20;;
69172;SDS011;56280;49.662;8.408;2023-07-30T00:20:52;2.60;;;1.00;;
69172;SDS011;56280;49.662;8.408;2023-07-30T00:23:17;4.13;;;1.10;;
69172;SDS011;56280;49.662;8.408;2023-07-30T00:25:42;3.67;;;1.03;;
69172;SDS011;56280;49.662;8.408;2023-07-30T00:28:08;2.87;;;1.10;;
69172;SDS011;56280;49.662;8.408;2023-07-30T00:30:33;3.67;;;1.13;;
69172;SDS011;56280;49.662;8.408;2023-07-30T00:32:58;3.23;;;1.10;;
69172;SDS011;56280;49.662;8.408;2023-07-30T00:35:23;3.50;;;0.97;;
69172;SDS011;56280;49.662;8.408;2023-07-30T00:37:49;2.80;;;0.90;;
69172;SDS011;56280;49.662;8.408;2023-07-30T00:40:14;2.30;;;0.90;;
69172;SDS011;56280;49.662;8.408;2023-07-30T00:42:39;2.93;;;0.93;;
69172;SDS011;56280;49.662;8.408;2023-07-30T00:45:05;3.27;;;0.97;;
69172;SDS011;56280;49.662;8.408;2023-07-30T00:47:30;3.90;;;0.80;;
69172;SDS011;56280;49.662;8.408;2023-07-30T00:49:56;3.65;;;1.00;;
69172;SDS011;56280;49.662;8.408;2023-07-30T00:52:22;2.77;;;0.93;;
69172;SDS011;56280;49.662;8.408;2023-07-30T00:54:49;3.35;;;0.90;;
69172;SDS011;56280;49.662;8.408;2023-07-30T00:57:17;2.50;;;0.90;;
69172;SDS011;56280;49.662;8.408;2023-07-30T00:59:44;3.28;;;0.90;;
69172;SDS011;56280;49.662;8.408;2023-07-30T01:02:10;2.70;;;1.00;;
69172;SDS011;56280;49.662;8.408;2023-07-30T01:04:36;3.30;;;1.00;;
69172;SDS011;56280;49.662;8.408;2023-07-30T01:07:05;2.90;;;1.08;;
69172;SDS011;56280;49.662;8.408;2023-07-30T01:09:31;3.10;;;0.95;;
69172;SDS011;56280;49.662;8.408;2023-07-30T01:11:57;3.55;;;1.10;;
69172;SDS011;56280;49.662;8.408;2023-07-30T01:14:23;2.47;;;0.98;;
69172;SDS011;56280;49.662;8.408;2023-07-30T01:16:51;2.67;;;1.08;;
69172;SDS011;56280;49.662;8.408;2023-07-30T01:19:16;2.50;;;1.00;;
69172;SDS011;56280;49.662;8.408;2023-07-30T01:21:41;2.73;;;1.20;;
69172;SDS011;56280;49.662;8.408;2023-07-30T01:24:06;3.07;;;1.10;;
69172;SDS011;56280;49.662;8.408;2023-07-30T01:26:32;3.93;;;1.03;;
69172;SDS011;56280;49.662;8.408;2023-07-30T01:29:03;2.53;;;1.10;;
69172;SDS011;56280;49.662;8.408;2023-07-30T01:31:34;3.55;;;1.20;;
69172;SDS011;56280;49.662;8.408;2023-07-30T01:34:00;3.70;;;1.20;;
69172;SDS011;56280;49.662;8.408;2023-07-30T01:36:28;2.90;;;1.10;;
69172;SDS011;56280;49.662;8.408;2023-07-30T01:38:54;3.53;;;1.00;;
69172;SDS011;56280;49.662;8.408;2023-07-30T01:41:21;3.40;;;1.00;;
69172;SDS011;56280;49.662;8.408;2023-07-30T01:43:47;4.18;;;1.20;;
69172;SDS011;56280;49.662;8.408;2023-07-30T01:46:12;3.13;;;1.30;;
69172;SDS011;56280;49.662;8.408;2023-07-30T01:48:37;2.73;;;1.00;;
69172;SDS011;56280;49.662;8.408;2023-07-30T01:51:02;4.90;;;1.10;;
69172;SDS011;56280;49.662;8.408;2023-07-30T01:53:28;3.20;;;1.17;;
69172;SDS011;56280;49.662;8.408;2023-07-30T01:55:53;3.00;;;1.30;;
69172;SDS011;56280;49.662;8.408;2023-07-30T01:58:18;3.37;;;1.20;;
69172;SDS011;56280;49.662;8.408;2023-07-30T02:00:43;3.77;;;1.20;;
69172;SDS011;56280;49.662;8.408;2023-07-30T02:03:09;2.83;;;1.17;;
69172;SDS011;56280;49.662;8.408;2023-07-30T02:05:34;3.37;;;1.37;;
69172;SDS011;56280;49.662;8.408;2023-07-30T02:07:59;3.30;;;1.10;;
69172;SDS011;56280;49.662;8.408;2023-07-30T02:10:25;4.37;;;1.30;;
69172;SDS011;56280;49.662;8.408;2023-07-30T02:12:50;3.77;;;1.40;;
69172;SDS011;56280;49.662;8.408;2023-07-30T02:15:16;3.80;;;1.50;;
69172;SDS011;56280;49.662;8.408;2023-07-30T02:17:41;3.90;;;1.40;;
69172;SDS011;56280;49.662;8.408;2023-07-30T02:20:07;3.97;;;1.30;;
69172;SDS011;56280;49.662;8.408;2023-07-30T02:22:35;4.70;;;1.50;;
69172;SDS011;56280;49.662;8.408;2023-07-30T02:25:00;3.00;;;1.43;;
69172;SDS011;56280;49.662;8.408;2023-07-30T02:27:26;3.50;;;1.30;;
69172;SDS011;56280;49.662;8.408;2023-07-30T02:29:51;4.10;;;1.42;;
69172;SDS011;56280;49.662;8.408;2023-07-30T02:32:16;3.30;;;1.30;;
69172;SDS011;56280;49.662;8.408;2023-07-30T02:34:41;4.60;;;1.40;;
69172;SDS011;56280;49.662;8.408;2023-07-30T02:37:07;3.53;;;1.50;;
69172;SDS011;56280;49.662;8.408;2023-07-30T02:39:32;3.73;;;1.57;;
69172;SDS011;56280;49.662;8.408;2023-07-30T02:41:57;3.20;;;1.50;;
69172;SDS011;56280;49.662;8.408;2023-07-30T02:44:22;4.40;;;1.47;;
69172;SDS011;56280;49.662;8.408;2023-07-30T02:46:48;3.90;;;1.67;;
69172;SDS011;56280;49.662;8.408;2023-07-30T02:49:13;3.70;;;1.67;;
69172;SDS011;56280;49.662;8.408;2023-07-30T02:51:38;3.77;;;1.60;;
69172;SDS011;56280;49.662;8.408;2023-07-30T02:54:04;3.77;;;1.60;;
69172;SDS011;56280;49.662;8.408;2023-07-30T02:56:30;3.30;;;1.60;;
69172;SDS011;56280;49.662;8.408;2023-07-30T02:58:56;4.57;;;1.50;;
69172;SDS011;56280;49.662;8.408;2023-07-30T03:01:23;3.65;;;1.63;;
69172;SDS011;56280;49.662;8.408;2023-07-30T03:03:49;4.03;;;1.80;;
69172;SDS011;56280;49.662;8.408;2023-07-30T03:06:14;4.30;;;1.80;;
69172;SDS011;56280;49.662;8.408;2023-07-30T03:08:41;3.97;;;1.80;;
69172;SDS011;56280;49.662;8.408;2023-07-30T03:11:07;4.50;;;1.60;;
69172;SDS011;56280;49.662;8.408;2023-07-30T03:13:32;4.47;;;1.77;;
69172;SDS011;56280;49.662;8.408;2023-07-30T03:15:57;3.90;;;1.80;;
69172;SDS011;56280;49.662;8.408;2023-07-30T03:18:23;3.60;;;1.80;;
69172;SDS011;56280;49.662;8.408;2023-07-30T03:20:48;4.07;;;2.00;;
69172;SDS011;56280;49.662;8.408;2023-07-30T03:23:13;3.63;;;2.00;;
69172;SDS011;56280;49.662;8.408;2023-07-30T03:25:38;3.70;;;1.80;;
69172;SDS011;56280;49.662;8.408;2023-07-30T03:28:04;3.72;;;1.70;;
69172;SDS011;56280;49.662;8.408;2023-07-30T03:30:29;4.33;;;1.80;;
69172;SDS011;56280;49.662;8.408;2023-07-30T03:32:55;3.97;;;1.70;;
69172;SDS011;56280;49.662;8.408;2023-07-30T03:35:20;4.15;;;1.90;;
69172;SDS011;56280;49.662;8.408;2023-07-30T03:37:45;6.10;;;1.90;;
69172;SDS011;56280;49.662;8.408;2023-07-30T03:40:11;5.00;;;2.00;;
69172;SDS011;56280;49.662;8.408;2023-07-30T03:42:36;4.15;;;2.03;;
69172;SDS011;56280;49.662;8.408;2023-07-30T03:45:01;3.90;;;2.10;;
69172;SDS011;56280;49.662;8.408;2023-07-30T03:47:27;3.73;;;1.97;;
69172;SDS011;56280;49.662;8.408;2023-07-30T03:49:52;4.43;;;1.90;;
69172;SDS011;56280;49.662;8.408;2023-07-30T03:52:17;5.03;;;2.17;;
69172;SDS011;56280;49.662;8.408;2023-07-30T03:54:42;4.70;;;1.90;;
69172;SDS011;56280;49.662;8.408;2023-07-30T03:57:08;3.90;;;2.00;;
69172;SDS011;56280;49.662;8.408;2023-07-30T03:59:33;4.30;;;1.90;;
69172;SDS011;56280;49.662;8.408;2023-07-30T04:01:58;5.57;;;2.10;;
69172;SDS011;56280;49.662;8.408;2023-07-30T04:04:24;3.50;;;1.80;;
69172;SDS011;56280;49.662;8.408;2023-07-30T04:06:49;5.07;;;2.10;;
69172;SDS011;56280;49.662;8.408;2023-07-30T04:09:14;3.53;;;1.90;;
69172;SDS011;56280;49.662;8.408;2023-07-30T04:11:40;3.67;;;1.80;;
69172;SDS011;56280;49.662;8.408;2023-07-30T04:14:05;3.40;;;1.90;;
69172;SDS011;56280;49.662;8.408;2023-07-30T04:16:32;3.95;;;1.90;;
69172;SDS011;56280;49.662;8.408;2023-07-30T04:18:58;3.97;;;1.97;;
69172;SDS011;56280;49.662;8.408;2023-07-30T04:21:23;4.63;;;2.00;;
69172;SDS011;56280;49.662;8.408;2023-07-30T04:23:49;5.13;;;2.00;;
69172;SDS011;56280;49.662;8.408;2023-07-30T04:26:14;4.20;;;1.90;;
69172;SDS011;56280;49.662;8.408;2023-07-30T04:28:39;3.57;;;1.70;;
69172;SDS011;56280;49.662;8.408;2023-07-30T04:31:05;4.37;;;2.17;;
69172;SDS011;56280;49.662;8.408;2023-07-30T04:33:31;4.07;;;2.33;;
69172;SDS011;56280;49.662;8.408;2023-07-30T04:35:56;3.50;;;2.10;;
69172;SDS011;56280;49.662;8.408;2023-07-30T04:38:21;4.83;;;2.07;;
69172;SDS011;56280;49.662;8.408;2023-07-30T04:40:47;3.87;;;2.30;;
69172;SDS011;56280;49.662;8.408;2023-07-30T04:43:12;4.00;;;2.30;;
69172;SDS011;56280;49.662;8.408;2023-07-30T04:45:37;4.85;;;2.28;;
69172;SDS011;56280;49.662;8.408;2023-07-30T04:48:03;6.07;;;2.30;;
69172;SDS011;56280;49.662;8.408;2023-07-30T04:50:28;5.22;;;2.20;;
69172;SDS011;56280;49.662;8.408;2023-07-30T04:52:53;4.53;;;2.30;;
69172;SDS011;56280;49.662;8.408;2023-07-30T04:55:19;5.40;;;2.20;;
69172;SDS011;56280;49.662;8.408;2023-07-30T04:57:44;4.00;;;2.20;;
69172;SDS011;56280;49.662;8.408;2023-07-30T05:00:09;4.47;;;2.40;;
69172;SDS011;56280;49.662;8.408;2023-07-30T05:02:35;3.72;;;2.13;;
69172;SDS011;56280;49.662;8.408;2023-07-30T05:05:00;3.60;;;2.33;;
69172;SDS011;56280;49.662;8.408;2023-07-30T05:07:25;3.67;;;2.10;;
69172;SDS011;56280;49.662;8.408;2023-07-30T05:09:51;4.47;;;2.38;;
69172;SDS011;56280;49.662;8.408;2023-07-30T05:12:16;4.10;;;2.20;;
69172;SDS011;56280;49.662;8.408;2023-07-30T05:14:41;4.30;;;2.50;;
69172;SDS011;56280;49.662;8.408;2023-07-30T05:17:06;3.90;;;2.20;;
69172;SDS011;56280;49.662;8.408;2023-07-30T05:19:32;5.10;;;2.13;;
69172;SDS011;56280;49.662;8.408;2023-07-30T05:21:57;3.47;;;2.13;;
69172;SDS011;56280;49.662;8.408;2023-07-30T05:24:24;3.53;;;2.10;;
69172;SDS011;56280;49.662;8.408;2023-07-30T05:26:49;4.20;;;1.90;;
69172;SDS011;56280;49.662;8.408;2023-07-30T05:29:15;5.97;;;2.27;;
69172;SDS011;56280;49.662;8.408;2023-07-30T05:31:40;4.60;;;2.40;;
69172;SDS011;56280;49.662;8.408;2023-07-30T05:34:05;4.40;;;2.38;;
69172;SDS011;56280;49.662;8.408;2023-07-30T05:36:30;4.33;;;2.50;;
69172;SDS011;56280;49.662;8.408;2023-07-30T05:38:56;4.10;;;2.20;;
69172;SDS011;56280;49.662;8.408;2023-07-30T05:41:21;3.80;;;1.93;;
69172;SDS011;56280;49.662;8.408;2023-07-30T05:43:46;3.63;;;2.03;;
69172;SDS011;56280;49.662;8.408;2023-07-30T05:46:12;5.47;;;2.25;;
69172;SDS011;56280;49.662;8.408;2023-07-30T05:48:37;4.83;;;2.10;;
69172;SDS011;56280;49.662;8.408;2023-07-30T05:51:03;5.20;;;2.20;;
69172;SDS011;56280;49.662;8.408;2023-07-30T05:53:28;4.80;;;1.93;;
69172;SDS011;56280;49.662;8.408;2023-07-30T05:55:54;4.97;;;1.90;;
69172;SDS011;56280;49.662;8.408;2023-07-30T05:58:19;4.13;;;1.80;;
69172;SDS011;56280;49.662;8.408;2023-07-30T06:00:44;3.97;;;2.03;;
69172;SDS011;56280;49.662;8.408;2023-07-30T06:03:10;4.30;;;1.90;;
69172;SDS011;56280;49.662;8.408;2023-07-30T06:05:41;4.00;;;1.87;;
69172;SDS011;56280;49.662;8.408;2023-07-30T06:08:07;3.47;;;1.67;;
69172;SDS011;56280;49.662;8.408;2023-07-30T06:10:36;3.30;;;1.80;;
69172;SDS011;56280;49.662;8.408;2023-07-30T06:13:02;5.25;;;1.80;;
69172;SDS011;56280;49.662;8.408;2023-07-30T06:15:28;4.00;;;1.90;;
69172;SDS011;56280;49.662;8.408;2023-07-30T06:17:54;4.38;;;1.92;;
69172;SDS011;56280;49.662;8.408;2023-07-30T06:20:19;4.60;;;2.07;;
69172;SDS011;56280;49.662;8.408;2023-07-30T06:22:44;3.47;;;1.80;;
69172;SDS011;56280;49.662;8.408;2023-07-30T06:25:09;4.53;;;1.98;;
69172;SDS011;56280;49.662;8.408;2023-07-30T06:27:35;4.40;;;2.13;;
69172;SDS011;56280;49.662;8.408;2023-07-30T06:30:00;4.23;;;1.90;;
69172;SDS011;56280;49.662;8.408;2023-07-30T06:32:25;3.50;;;1.90;;
69172;SDS011;56280;49.662;8.408;2023-07-30T06:34:51;5.43;;;2.17;;
69172;SDS011;56280;49.662;8.408;2023-07-30T06:37:16;4.20;;;1.90;;
69172;SDS011;56280;49.662;8.408;2023-07-30T06:39:41;5.47;;;2.30;;
69172;SDS011;56280;49.662;8.408;2023-07-30T06:42:06;3.87;;;2.03;;
69172;SDS011;56280;49.662;8.408;2023-07-30T06:44:33;4.18;;;2.00;;
69172;SDS011;56280;49.662;8.408;2023-07-30T06:46:59;4.20;;;2.10;;
69172;SDS011;56280;49.662;8.408;2023-07-30T06:49:24;4.20;;;2.00;;
69172;SDS011;56280;49.662;8.408;2023-07-30T06:51:49;3.60;;;2.03;;
69172;SDS011;56280;49.662;8.408;2023-07-30T06:54:14;4.33;;;2.13;;
69172;SDS011;56280;49.662;8.408;2023-07-30T06:56:40;4.30;;;2.13;;
69172;SDS011;56280;49.662;8.408;2023-07-30T06:59:05;3.87;;;2.00;;
69172;SDS011;56280;49.662;8.408;2023-07-30T07:01:30;4.27;;;2.23;;
69172;SDS011;56280;49.662;8.408;2023-07-30T07:03:55;4.80;;;2.20;;
69172;SDS011;56280;49.662;8.408;2023-07-30T07:06:21;3.70;;;2.10;;
69172;SDS011;56280;49.662;8.408;2023-07-30T07:08:46;4.23;;;2.30;;
69172;SDS011;56280;49.662;8.408;2023-07-30T07:11:11;4.10;;;2.10;;
69172;SDS011;56280;49.662;8.408;2023-07-30T07:13:37;4.00;;;2.20;;
69172;SDS011;56280;49.662;8.408;2023-07-30T07:16:02;5.20;;;2.20;;
69172;SDS011;56280;49.662;8.408;2023-07-30T07:18:28;3.97;;;2.20;;
69172;SDS011;56280;49.662;8.408;2023-07-30T07:20:54;4.23;;;2.00;;
69172;SDS011;56280;49.662;8.408;2023-07-30T07:23:19;3.87;;;2.07;;
69172;SDS011;56280;49.662;8.408;2023-07-30T07:25:44;4.70;;;2.13;;
69172;SDS011;56280;49.662;8.408;2023-07-30T07:28:09;4.20;;;2.10;;
69172;SDS011;56280;49.662;8.408;2023-07-30T07:30:35;3.50;;;2.00;;
69172;SDS011;56280;49.662;8.408;2023-07-30T07:33:04;4.43;;;2.10;;
69172;SDS011;56280;49.662;8.408;2023-07-30T07:35:32;4.60;;;2.00;;
69172;SDS011;56280;49.662;8.408;2023-07-30T07:37:57;3.67;;;2.00;;
69172;SDS011;56280;49.662;8.408;2023-07-30T07:40:23;4.07;;;2.00;;
69172;SDS011;56280;49.662;8.408;2023-07-30T07:42:48;4.27;;;2.07;;
69172;SDS011;56280;49.662;8.408;2023-07-30T07:45:13;4.40;;;2.20;;
69172;SDS011;56280;49.662;8.408;2023-07-30T07:47:39;4.00;;;2.10;;
69172;SDS011;56280;49.662;8.408;2023-07-30T07:50:04;3.70;;;2.23;;
69172;SDS011;56280;49.662;8.408;2023-07-30T07:52:30;4.95;;;2.42;;
69172;SDS011;56280;49.662;8.408;2023-07-30T07:54:56;3.90;;;2.10;;
69172;SDS011;56280;49.662;8.408;2023-07-30T07:57:21;4.63;;;2.13;;
69172;SDS011;56280;49.662;8.408;2023-07-30T07:59:46;4.80;;;2.20;;
69172;SDS011;56280;49.662;8.408;2023-07-30T08:02:12;4.27;;;2.00;;
69172;SDS011;56280;49.662;8.408;2023-07-30T08:04:37;3.83;;;1.80;;
69172;SDS011;56280;49.662;8.408;2023-07-30T08:07:03;3.93;;;1.93;;
69172;SDS011;56280;49.662;8.408;2023-07-30T08:09:29;4.25;;;1.77;;
69172;SDS011;56280;49.662;8.408;2023-07-30T08:11:54;5.47;;;1.70;;
69172;SDS011;56280;49.662;8.408;2023-07-30T08:14:20;3.73;;;1.77;;
69172;SDS011;56280;49.662;8.408;2023-07-30T08:16:45;3.70;;;1.70;;
69172;SDS011;56280;49.662;8.408;2023-07-30T08:19:10;3.50;;;1.60;;
69172;SDS011;56280;49.662;8.408;2023-07-30T08:21:36;3.23;;;1.80;;
69172;SDS011;56280;49.662;8.408;2023-07-30T08:24:01;3.35;;;1.63;;
69172;SDS011;56280;49.662;8.408;2023-07-30T08:26:26;4.60;;;1.70;;
69172;SDS011;56280;49.662;8.408;2023-07-30T08:28:52;3.93;;;1.73;;
69172;SDS011;56280;49.662;8.408;2023-07-30T08:31:17;3.80;;;1.80;;
69172;SDS011;56280;49.662;8.408;2023-07-30T08:33:42;6.07;;;2.10;;
69172;SDS011;56280;49.662;8.408;2023-07-30T08:36:07;4.50;;;1.83;;
69172;SDS011;56280;49.662;8.408;2023-07-30T08:38:33;3.80;;;1.90;;
69172;SDS011;56280;49.662;8.408;2023-07-30T08:40:58;4.33;;;1.70;;
69172;SDS011;56280;49.662;8.408;2023-07-30T08:43:23;5.47;;;1.80;;
69172;SDS011;56280;49.662;8.408;2023-07-30T08:45:49;3.93;;;1.93;;
69172;SDS011;56280;49.662;8.408;2023-07-30T08:48:14;4.93;;;2.40;;
69172;SDS011;56280;49.662;8.408;2023-07-30T08:50:39;4.77;;;2.30;;
69172;SDS011;56280;49.662;8.408;2023-07-30T08:53:06;5.18;;;2.38;;
69172;SDS011;56280;49.662;8.408;2023-07-30T08:55:33;3.88;;;2.20;;
69172;SDS011;56280;49.662;8.408;2023-07-30T08:57:59;4.47;;;2.05;;
69172;SDS011;56280;49.662;8.408;2023-07-30T09:00:26;4.00;;;1.98;;
69172;SDS011;56280;49.662;8.408;2023-07-30T09:02:56;3.38;;;1.98;;
69172;SDS011;56280;49.662;8.408;2023-07-30T09:05:25;3.80;;;1.90;;
69172;SDS011;56280;49.662;8.408;2023-07-30T09:07:54;3.80;;;1.90;;
69172;SDS011;56280;49.662;8.408;2023-07-30T09:10:19;4.03;;;2.03;;
69172;SDS011;56280;49.662;8.408;2023-07-30T09:12:44;3.40;;;2.03;;
69172;SDS011;56280;49.662;8.408;2023-07-30T09:15:10;4.70;;;1.93;;
69172;SDS011;56280;49.662;8.408;2023-07-30T09:17:35;3.50;;;1.80;;
69172;SDS011;56280;49.662;8.408;2023-07-30T09:20:04;4.13;;;2.00;;
69172;SDS011;56280;49.662;8.408;2023-07-30T09:22:31;4.35;;;1.90;;
69172;SDS011;56280;49.662;8.408;2023-07-30T09:25:05;4.13;;;2.25;;
69172;SDS011;56280;49.662;8.408;2023-07-30T09:27:32;4.30;;;1.80;;
69172;SDS011;56280;49.662;8.408;2023-07-30T09:29:58;3.73;;;1.70;;
69172;SDS011;56280;49.662;8.408;2023-07-30T09:32:25;2.50;;;0.60;;
69172;SDS011;56280;49.662;8.408;2023-07-30T09:34:52;1.80;;;0.50;;
69172;SDS011;56280;49.662;8.408;2023-07-30T09:37:17;2.47;;;0.60;;
69172;SDS011;56280;49.662;8.408;2023-07-30T09:39:43;2.37;;;0.60;;
69172;SDS011;56280;49.662;8.408;2023-07-30T09:42:08;2.80;;;0.63;;
69172;SDS011;56280;49.662;8.408;2023-07-30T09:44:33;2.50;;;0.80;;
69172;SDS011;56280;49.662;8.408;2023-07-30T09:47:00;2.93;;;0.60;;
69172;SDS011;56280;49.662;8.408;2023-07-30T09:49:30;2.47;;;0.80;;
69172;SDS011;56280;49.662;8.408;2023-07-30T09:51:55;6.83;;;1.07;;
69172;SDS011;56280;49.662;8.408;2023-07-30T09:54:21;2.17;;;0.70;;
69172;SDS011;56280;49.662;8.408;2023-07-30T09:56:47;2.53;;;0.80;;
69172;SDS011;56280;49.662;8.408;2023-07-30T09:59:12;2.30;;;0.70;;
69172;SDS011;56280;49.662;8.408;2023-07-30T10:01:38;2.30;;;0.67;;
69172;SDS011;56280;49.662;8.408;2023-07-30T10:04:09;3.10;;;0.82;;
69172;SDS011;56280;49.662;8.408;2023-07-30T10:06:40;2.45;;;0.75;;
69172;SDS011;56280;49.662;8.408;2023-07-30T10:09:10;2.08;;;0.70;;
69172;SDS011;56280;49.662;8.408;2023-07-30T10:11:37;2.25;;;0.75;;
69172;SDS011;56280;49.662;8.408;2023-07-30T10:14:04;2.65;;;0.70;;
69172;SDS011;56280;49.662;8.408;2023-07-30T10:16:31;3.13;;;0.85;;
69172;SDS011;56280;49.662;8.408;2023-07-30T10:18:56;2.23;;;0.80;;
69172;SDS011;56280;49.662;8.408;2023-07-30T10:21:25;2.83;;;0.80;;
69172;SDS011;56280;49.662;8.408;2023-07-30T10:24:04;3.10;;;0.75;;
69172;SDS011;56280;49.662;8.408;2023-07-30T10:26:31;2.53;;;0.80;;
69172;SDS011;56280;49.662;8.408;2023-07-30T10:29:10;3.08;;;0.80;;
69172;SDS011;56280;49.662;8.408;2023-07-30T10:31:43;2.97;;;0.70;;
69172;SDS011;56280;49.662;8.408;2023-07-30T10:34:20;2.30;;;0.80;;
69172;SDS011;56280;49.662;8.408;2023-07-30T10:36:46;2.72;;;0.80;;
69172;SDS011;56280;49.662;8.408;2023-07-30T10:39:20;3.20;;;0.90;;
69172;SDS011;56280;49.662;8.408;2023-07-30T10:41:50;3.07;;;0.97;;
69172;SDS011;56280;49.662;8.408;2023-07-30T10:44:18;3.33;;;0.80;;
69172;SDS011;56280;49.662;8.408;2023-07-30T10:46:44;3.00;;;0.73;;
69172;SDS011;56280;49.662;8.408;2023-07-30T10:49:09;3.67;;;0.90;;
69172;SDS011;56280;49.662;8.408;2023-07-30T10:51:37;3.67;;;0.98;;
69172;SDS011;56280;49.662;8.408;2023-07-30T10:54:02;2.70;;;0.83;;
69172;SDS011;56280;49.662;8.408;2023-07-30T10:56:32;3.67;;;1.00;;
69172;SDS011;56280;49.662;8.408;2023-07-30T10:59:02;3.55;;;1.10;;
69172;SDS011;56280;49.662;8.408;2023-07-30T11:01:30;4.53;;;1.17;;
69172;SDS011;56280;49.662;8.408;2023-07-30T11:03:55;3.50;;;1.20;;
69172;SDS011;56280;49.662;8.408;2023-07-30T11:06:25;4.77;;;1.10;;
69172;SDS011;56280;49.662;8.408;2023-07-30T11:08:51;3.63;;;1.00;;
69172;SDS011;56280;49.662;8.408;2023-07-30T11:11:17;3.50;;;1.10;;
69172;SDS011;56280;49.662;8.408;2023-07-30T11:13:44;2.83;;;0.80;;
69172;SDS011;56280;49.662;8.408;2023-07-30T11:16:11;4.00;;;1.00;;
69172;SDS011;56280;49.662;8.408;2023-07-30T11:18:37;3.67;;;0.90;;
69172;SDS011;56280;49.662;8.408;2023-07-30T11:23:30;4.70;;;1.10;;
69172;SDS011;56280;49.662;8.408;2023-07-30T11:25:55;4.43;;;1.17;;
69172;SDS011;56280;49.662;8.408;2023-07-30T11:28:26;4.80;;;1.13;;
69172;SDS011;56280;49.662;8.408;2023-07-30T11:31:00;5.93;;;1.20;;
69172;SDS011;56280;49.662;8.408;2023-07-30T11:33:27;5.75;;;1.25;;
69172;SDS011;56280;49.662;8.408;2023-07-30T11:35:57;4.00;;;1.40;;
69172;SDS011;56280;49.662;8.408;2023-07-30T11:38:23;8.38;;;1.33;;
69172;SDS011;56280;49.662;8.408;2023-07-30T11:40:50;4.15;;;1.20;;
69172;SDS011;56280;49.662;8.408;2023-07-30T11:43:16;4.85;;;1.30;;
69172;SDS011;56280;49.662;8.408;2023-07-30T11:45:42;4.10;;;1.20;;
69172;SDS011;56280;49.662;8.408;2023-07-30T11:48:08;4.57;;;1.30;;
69172;SDS011;56280;49.662;8.408;2023-07-30T11:50:42;3.80;;;1.55;;
69172;SDS011;56280;49.662;8.408;2023-07-30T11:53:08;5.32;;;1.35;;
69172;SDS011;56280;49.662;8.408;2023-07-30T11:55:40;6.07;;;1.67;;
69172;SDS011;56280;49.662;8.408;2023-07-30T11:58:06;4.43;;;1.60;;
69172;SDS011;56280;49.662;8.408;2023-07-30T12:00:32;5.15;;;1.70;;
69172;SDS011;56280;49.662;8.408;2023-07-30T12:03:02;4.28;;;1.35;;
69172;SDS011;56280;49.662;8.408;2023-07-30T12:05:31;4.13;;;1.23;;
69172;SDS011;56280;49.662;8.408;2023-07-30T12:07:58;4.33;;;1.40;;
69172;SDS011;56280;49.662;8.408;2023-07-30T12:10:27;4.90;;;1.30;;
69172;SDS011;56280;49.662;8.408;2023-07-30T12:12:52;4.73;;;1.47;;
69172;SDS011;56280;49.662;8.408;2023-07-30T12:15:18;5.00;;;1.30;;
69172;SDS011;56280;49.662;8.408;2023-07-30T12:17:43;5.17;;;1.30;;
69172;SDS011;56280;49.662;8.408;2023-07-30T12:20:09;5.97;;;1.60;;
69172;SDS011;56280;49.662;8.408;2023-07-30T12:22:36;5.95;;;1.50;;
69172;SDS011;56280;49.662;8.408;2023-07-30T12:25:03;5.87;;;1.63;;
69172;SDS011;56280;49.662;8.408;2023-07-30T12:27:29;4.80;;;1.67;;
69172;SDS011;56280;49.662;8.408;2023-07-30T12:29:54;4.07;;;1.10;;
69172;SDS011;56280;49.662;8.408;2023-07-30T12:32:20;4.30;;;1.40;;
69172;SDS011;56280;49.662;8.408;2023-07-30T12:34:45;5.87;;;1.50;;
69172;SDS011;56280;49.662;8.408;2023-07-30T12:37:10;3.90;;;1.37;;
69172;SDS011;56280;49.662;8.408;2023-07-30T12:39:36;5.40;;;1.47;;
69172;SDS011;56280;49.662;8.408;2023-07-30T12:42:01;4.80;;;1.40;;
69172;SDS011;56280;49.662;8.408;2023-07-30T12:44:26;4.87;;;1.40;;
69172;SDS011;56280;49.662;8.408;2023-07-30T12:46:51;4.87;;;1.30;;
69172;SDS011;56280;49.662;8.408;2023-07-30T12:49:17;4.93;;;1.30;;
69172;SDS011;56280;49.662;8.408;2023-07-30T12:51:43;5.27;;;1.40;;
69172;SDS011;56280;49.662;8.408;2023-07-30T12:54:08;4.63;;;1.37;;
69172;SDS011;56280;49.662;8.408;2023-07-30T12:56:33;6.03;;;1.40;;
69172;SDS011;56280;49.662;8.408;2023-07-30T12:58:58;6.03;;;1.40;;
69172;SDS011;56280;49.662;8.408;2023-07-30T13:01:24;5.37;;;1.37;;
69172;SDS011;56280;49.662;8.408;2023-07-30T13:03:49;6.80;;;1.33;;
69172;SDS011;56280;49.662;8.408;2023-07-30T13:06:16;5.90;;;1.50;;
69172;SDS011;56280;49.662;8.408;2023-07-30T13:08:42;4.93;;;1.40;;
69172;SDS011;56280;49.662;8.408;2023-07-30T13:11:07;4.87;;;1.33;;
69172;SDS011;56280;49.662;8.408;2023-07-30T13:13:32;4.60;;;1.27;;
69172;SDS011;56280;49.662;8.408;2023-07-30T13:15:58;3.80;;;1.30;;
69172;SDS011;56280;49.662;8.408;2023-07-30T13:18:26;5.38;;;1.50;;
69172;SDS011;56280;49.662;8.408;2023-07-30T13:20:51;4.40;;;1.60;;
69172;SDS011;56280;49.662;8.408;2023-07-30T13:23:16;5.13;;;1.50;;
69172;SDS011;56280;49.662;8.408;2023-07-30T13:25:42;6.27;;;1.50;;
69172;SDS011;56280;49.662;8.408;2023-07-30T13:28:07;4.33;;;1.10;;
69172;SDS011;56280;49.662;8.408;2023-07-30T13:30:32;3.70;;;1.30;;
69172;SDS011;56280;49.662;8.408;2023-07-30T13:32:57;5.70;;;1.40;;
69172;SDS011;56280;49.662;8.408;2023-07-30T13:35:23;6.17;;;1.43;;
69172;SDS011;56280;49.662;8.408;2023-07-30T13:37:48;4.50;;;1.30;;
69172;SDS011;56280;49.662;8.408;2023-07-30T13:40:13;4.80;;;1.57;;
69172;SDS011;56280;49.662;8.408;2023-07-30T13:42:39;5.17;;;1.63;;
69172;SDS011;56280;49.662;8.408;2023-07-30T13:45:04;3.75;;;1.30;;
69172;SDS011;56280;49.662;8.408;2023-07-30T13:47:30;5.30;;;1.38;;
69172;SDS011;56280;49.662;8.408;2023-07-30T13:49:55;4.97;;;1.30;;
69172;SDS011;56280;49.662;8.408;2023-07-30T13:52:20;4.23;;;1.40;;
69172;SDS011;56280;49.662;8.408;2023-07-30T13:54:46;4.37;;;1.20;;
69172;SDS011;56280;49.662;8.408;2023-07-30T13:57:11;5.43;;;1.30;;
69172;SDS011;56280;49.662;8.408;2023-07-30T13:59:36;5.17;;;1.20;;
69172;SDS011;56280;49.662;8.408;2023-07-30T14:02:02;4.53;;;1.30;;
69172;SDS011;56280;49.662;8.408;2023-07-30T14:04:27;4.70;;;1.20;;
69172;SDS011;56280;49.662;8.408;2023-07-30T14:06:53;5.57;;;1.50;;
69172;SDS011;56280;49.662;8.408;2023-07-30T14:09:18;4.50;;;1.30;;
69172;SDS011;56280;49.662;8.408;2023-07-30T14:11:43;6.47;;;1.60;;
69172;SDS011;56280;49.662;8.408;2023-07-30T14:14:11;7.35;;;1.50;;
69172;SDS011;56280;49.662;8.408;2023-07-30T14:16:36;4.37;;;1.20;;
69172;SDS011;56280;49.662;8.408;2023-07-30T14:19:01;5.10;;;1.38;;
69172;SDS011;56280;49.662;8.408;2023-07-30T14:21:27;5.53;;;1.30;;
69172;SDS011;56280;49.662;8.408;2023-07-30T14:23:52;4.57;;;1.10;;
69172;SDS011;56280;49.662;8.408;2023-07-30T14:26:18;4.93;;;1.23;;
69172;SDS011;56280;49.662;8.408;2023-07-30T14:28:43;6.43;;;1.30;;
69172;SDS011;56280;49.662;8.408;2023-07-30T14:31:08;5.80;;;1.17;;
69172;SDS011;56280;49.662;8.408;2023-07-30T14:33:34;4.70;;;1.23;;
69172;SDS011;56280;49.662;8.408;2023-07-30T14:35:59;5.13;;;1.20;;
69172;SDS011;56280;49.662;8.408;2023-07-30T14:38:24;4.13;;;1.20;;
69172;SDS011;56280;49.662;8.408;2023-07-30T14:40:49;4.93;;;1.40;;
69172;SDS011;56280;49.662;8.408;2023-07-30T14:43:15;4.57;;;1.30;;